sensor_id;sensor_type;location;lat;lon;timestamp;P1;durP1;ratioP1;P2;durP2;ratioP2
59846;SDS011;45728;48.788;2.302;2023-12-20T00:01:50;5.55;;;4.63;;
59846;SDS011;45728;48.788;2.302;2023-12-20T00:04:16;5.75;;;5.25;;
59846;SDS011;45728;48.788;2.302;2023-12-20T00:06:42;5.90;;;5.22;;
59846;SDS011;45728;48.788;2.302;2023-12-20T00:09:08;6.22;;;5.65;;
59846;SDS011;45728;48.788;2.302;2023-12-20T00:11:34;6.20;;;5.70;;
59846;SDS011;45728;48.788;2.302;2023-12-20T00:14:00;6.30;;;4.28;;
59846;SDS011;45728;48.788;2.302;2023-12-20T00:16:26;4.88;;;3.58;;
59846;SDS011;45728;48.788;2.302;2023-12-20T00:18:52;8.05;;;3.60;;
59846;SDS011;45728;48.788;2.302;2023-12-20T00:21:18;8.70;;;3.50;;
59846;SDS011;45728;48.788;2.302;2023-12-20T00:23:44;6.22;;;2.55;;
59846;SDS011;45728;48.788;2.302;2023-12-20T00:26:10;8.60;;;3.05;;
59846;SDS011;45728;48.788;2.302;2023-12-20T00:28:36;6.93;;;3.05;;
59846;SDS011;45728;48.788;2.302;2023-12-20T00:31:02;4.95;;;2.72;;
59846;SDS011;45728;48.788;2.302;2023-12-20T00:33:28;5.60;;;2.30;;
59846;SDS011;45728;48.788;2.302;2023-12-20T00:35:54;7.05;;;2.83;;
59846;SDS011;45728;48.788;2.302;2023-12-20T00:38:20;6.35;;;2.97;;
59846;SDS011;45728;48.788;2.302;2023-12-20T00:40:46;7.45;;;2.40;;
59846;SDS011;45728;48.788;2.302;2023-12-20T00:43:12;7.70;;;2.53;;
59846;SDS011;45728;48.788;2.302;2023-12-20T00:45:38;5.88;;;2.83;;
59846;SDS011;45728;48.788;2.302;2023-12-20T00:48:04;6.82;;;2.50;;
59846;SDS011;45728;48.788;2.302;2023-12-20T00:50:31;7.15;;;2.60;;
59846;SDS011;45728;48.788;2.302;2023-12-20T00:52:57;8.07;;;2.50;;
59846;SDS011;45728;48.788;2.302;2023-12-20T00:55:23;6.78;;;2.25;;
59846;SDS011;45728;48.788;2.302;2023-12-20T00:57:49;11.35;;;2.53;;
59846;SDS011;45728;48.788;2.302;2023-12-20T01:00:15;4.57;;;2.10;;
59846;SDS011;45728;48.788;2.302;2023-12-20T01:02:41;7.18;;;2.45;;
59846;SDS011;45728;48.788;2.302;2023-12-20T01:05:07;8.05;;;2.28;;
59846;SDS011;45728;48.788;2.302;2023-12-20T01:07:35;9.73;;;2.03;;
59846;SDS011;45728;48.788;2.302;2023-12-20T01:10:02;9.23;;;2.10;;
59846;SDS011;45728;48.788;2.302;2023-12-20T01:12:28;8.30;;;2.50;;
59846;SDS011;45728;48.788;2.302;2023-12-20T01:14:54;5.63;;;2.00;;
59846;SDS011;45728;48.788;2.302;2023-12-20T01:17:20;9.88;;;2.08;;
59846;SDS011;45728;48.788;2.302;2023-12-20T01:19:46;7.32;;;1.77;;
59846;SDS011;45728;48.788;2.302;2023-12-20T01:22:12;8.32;;;2.13;;
59846;SDS011;45728;48.788;2.302;2023-12-20T01:24:38;7.38;;;1.80;;
59846;SDS011;45728;48.788;2.302;2023-12-20T01:27:04;5.65;;;1.85;;
59846;SDS011;45728;48.788;2.302;2023-12-20T01:29:30;12.18;;;2.60;;
59846;SDS011;45728;48.788;2.302;2023-12-20T01:31:56;4.97;;;1.98;;
59846;SDS011;45728;48.788;2.302;2023-12-20T01:34:22;8.10;;;2.30;;
59846;SDS011;45728;48.788;2.302;2023-12-20T01:36:49;8.30;;;2.17;;
59846;SDS011;45728;48.788;2.302;2023-12-20T01:39:15;9.30;;;2.03;;
59846;SDS011;45728;48.788;2.302;2023-12-20T01:41:41;6.50;;;1.90;;
59846;SDS011;45728;48.788;2.302;2023-12-20T01:44:07;8.45;;;2.20;;
59846;SDS011;45728;48.788;2.302;2023-12-20T01:46:33;9.68;;;2.28;;
59846;SDS011;45728;48.788;2.302;2023-12-20T01:48:59;7.95;;;2.30;;
59846;SDS011;45728;48.788;2.302;2023-12-20T01:51:25;13.18;;;2.78;;
59846;SDS011;45728;48.788;2.302;2023-12-20T01:53:53;8.23;;;2.33;;
59846;SDS011;45728;48.788;2.302;2023-12-20T01:56:22;5.82;;;2.10;;
59846;SDS011;45728;48.788;2.302;2023-12-20T01:58:48;8.25;;;2.33;;
59846;SDS011;45728;48.788;2.302;2023-12-20T02:01:14;7.05;;;2.28;;
59846;SDS011;45728;48.788;2.302;2023-12-20T02:03:41;11.30;;;2.67;;
59846;SDS011;45728;48.788;2.302;2023-12-20T02:06:07;12.77;;;2.22;;
59846;SDS011;45728;48.788;2.302;2023-12-20T02:08:35;8.52;;;2.42;;
59846;SDS011;45728;48.788;2.302;2023-12-20T02:11:01;9.73;;;2.00;;
59846;SDS011;45728;48.788;2.302;2023-12-20T02:13:27;7.25;;;2.28;;
59846;SDS011;45728;48.788;2.302;2023-12-20T02:15:54;9.45;;;1.90;;
59846;SDS011;45728;48.788;2.302;2023-12-20T02:18:20;6.20;;;1.85;;
59846;SDS011;45728;48.788;2.302;2023-12-20T02:20:47;11.63;;;2.40;;
59846;SDS011;45728;48.788;2.302;2023-12-20T02:23:13;8.10;;;2.20;;
59846;SDS011;45728;48.788;2.302;2023-12-20T02:25:39;8.05;;;2.10;;
59846;SDS011;45728;48.788;2.302;2023-12-20T02:28:05;8.45;;;2.30;;
59846;SDS011;45728;48.788;2.302;2023-12-20T02:30:32;7.25;;;2.03;;
59846;SDS011;45728;48.788;2.302;2023-12-20T02:32:59;7.55;;;2.15;;
59846;SDS011;45728;48.788;2.302;2023-12-20T02:35:26;6.10;;;2.28;;
59846;SDS011;45728;48.788;2.302;2023-12-20T02:37:52;9.52;;;2.42;;
59846;SDS011;45728;48.788;2.302;2023-12-20T02:40:18;7.40;;;2.10;;
59846;SDS011;45728;48.788;2.302;2023-12-20T02:42:44;10.88;;;2.40;;
59846;SDS011;45728;48.788;2.302;2023-12-20T02:45:10;9.23;;;2.30;;
59846;SDS011;45728;48.788;2.302;2023-12-20T02:47:36;16.02;;;2.28;;
59846;SDS011;45728;48.788;2.302;2023-12-20T02:50:02;7.55;;;2.10;;
59846;SDS011;45728;48.788;2.302;2023-12-20T02:52:29;6.53;;;2.00;;
59846;SDS011;45728;48.788;2.302;2023-12-20T02:54:55;7.15;;;2.13;;
59846;SDS011;45728;48.788;2.302;2023-12-20T02:57:21;10.35;;;2.78;;
59846;SDS011;45728;48.788;2.302;2023-12-20T02:59:47;11.57;;;2.33;;
59846;SDS011;45728;48.788;2.302;2023-12-20T03:02:13;7.38;;;2.08;;
59846;SDS011;45728;48.788;2.302;2023-12-20T03:04:39;10.20;;;2.40;;
59846;SDS011;45728;48.788;2.302;2023-12-20T03:07:05;13.75;;;2.47;;
59846;SDS011;45728;48.788;2.302;2023-12-20T03:09:31;12.02;;;2.63;;
59846;SDS011;45728;48.788;2.302;2023-12-20T03:11:57;8.63;;;2.20;;
59846;SDS011;45728;48.788;2.302;2023-12-20T03:14:23;8.20;;;2.22;;
59846;SDS011;45728;48.788;2.302;2023-12-20T03:16:50;11.02;;;2.65;;
59846;SDS011;45728;48.788;2.302;2023-12-20T03:19:16;9.20;;;2.75;;
59846;SDS011;45728;48.788;2.302;2023-12-20T03:21:45;8.25;;;2.83;;
59846;SDS011;45728;48.788;2.302;2023-12-20T03:24:11;7.63;;;2.40;;
59846;SDS011;45728;48.788;2.302;2023-12-20T03:26:37;7.65;;;2.63;;
59846;SDS011;45728;48.788;2.302;2023-12-20T03:29:04;12.70;;;2.67;;
59846;SDS011;45728;48.788;2.302;2023-12-20T03:31:30;10.07;;;2.58;;
59846;SDS011;45728;48.788;2.302;2023-12-20T03:33:56;16.20;;;3.47;;
59846;SDS011;45728;48.788;2.302;2023-12-20T03:36:22;11.90;;;3.40;;
59846;SDS011;45728;48.788;2.302;2023-12-20T03:38:48;12.60;;;3.05;;
59846;SDS011;45728;48.788;2.302;2023-12-20T03:41:14;9.95;;;2.50;;
59846;SDS011;45728;48.788;2.302;2023-12-20T03:43:40;10.02;;;2.85;;
59846;SDS011;45728;48.788;2.302;2023-12-20T03:46:07;10.20;;;2.65;;
59846;SDS011;45728;48.788;2.302;2023-12-20T03:48:34;10.43;;;2.63;;
59846;SDS011;45728;48.788;2.302;2023-12-20T03:51:00;8.93;;;2.35;;
59846;SDS011;45728;48.788;2.302;2023-12-20T03:53:26;9.88;;;2.60;;
59846;SDS011;45728;48.788;2.302;2023-12-20T03:55:52;12.32;;;2.60;;
59846;SDS011;45728;48.788;2.302;2023-12-20T03:58:18;7.82;;;2.55;;
59846;SDS011;45728;48.788;2.302;2023-12-20T04:00:44;9.63;;;2.35;;
59846;SDS011;45728;48.788;2.302;2023-12-20T04:03:10;17.80;;;3.00;;
59846;SDS011;45728;48.788;2.302;2023-12-20T04:05:39;10.05;;;2.53;;
59846;SDS011;45728;48.788;2.302;2023-12-20T04:08:07;11.43;;;2.38;;
59846;SDS011;45728;48.788;2.302;2023-12-20T04:10:33;11.80;;;2.88;;
59846;SDS011;45728;48.788;2.302;2023-12-20T04:12:59;8.95;;;2.90;;
59846;SDS011;45728;48.788;2.302;2023-12-20T04:15:25;10.18;;;2.83;;
59846;SDS011;45728;48.788;2.302;2023-12-20T04:17:51;11.57;;;2.85;;
59846;SDS011;45728;48.788;2.302;2023-12-20T04:20:17;10.52;;;2.97;;
59846;SDS011;45728;48.788;2.302;2023-12-20T04:22:43;8.20;;;2.75;;
59846;SDS011;45728;48.788;2.302;2023-12-20T04:25:09;18.42;;;3.15;;
59846;SDS011;45728;48.788;2.302;2023-12-20T04:27:35;8.48;;;2.72;;
59846;SDS011;45728;48.788;2.302;2023-12-20T04:30:01;8.88;;;2.72;;
59846;SDS011;45728;48.788;2.302;2023-12-20T04:32:27;6.72;;;2.47;;
59846;SDS011;45728;48.788;2.302;2023-12-20T04:34:53;9.05;;;1.50;;
59846;SDS011;45728;48.788;2.302;2023-12-20T04:37:19;13.65;;;3.15;;
59846;SDS011;45728;48.788;2.302;2023-12-20T04:39:46;11.35;;;2.88;;
59846;SDS011;45728;48.788;2.302;2023-12-20T04:42:12;14.05;;;3.53;;
59846;SDS011;45728;48.788;2.302;2023-12-20T04:44:38;10.90;;;2.92;;
59846;SDS011;45728;48.788;2.302;2023-12-20T04:47:04;11.13;;;2.80;;
59846;SDS011;45728;48.788;2.302;2023-12-20T04:49:30;11.75;;;2.92;;
59846;SDS011;45728;48.788;2.302;2023-12-20T04:51:56;10.73;;;3.25;;
59846;SDS011;45728;48.788;2.302;2023-12-20T04:54:22;9.02;;;2.85;;
59846;SDS011;45728;48.788;2.302;2023-12-20T04:56:48;9.93;;;2.75;;
59846;SDS011;45728;48.788;2.302;2023-12-20T04:59:14;9.23;;;3.03;;
59846;SDS011;45728;48.788;2.302;2023-12-20T05:01:40;9.88;;;2.65;;
59846;SDS011;45728;48.788;2.302;2023-12-20T05:04:07;11.52;;;3.25;;
59846;SDS011;45728;48.788;2.302;2023-12-20T05:06:33;13.23;;;3.10;;
59846;SDS011;45728;48.788;2.302;2023-12-20T05:08:59;11.82;;;2.88;;
59846;SDS011;45728;48.788;2.302;2023-12-20T05:11:25;12.98;;;2.80;;
59846;SDS011;45728;48.788;2.302;2023-12-20T05:13:51;11.20;;;2.95;;
59846;SDS011;45728;48.788;2.302;2023-12-20T05:16:17;5.00;;;1.35;;
59846;SDS011;45728;48.788;2.302;2023-12-20T05:18:43;12.20;;;2.92;;
59846;SDS011;45728;48.788;2.302;2023-12-20T05:21:10;16.52;;;3.75;;
59846;SDS011;45728;48.788;2.302;2023-12-20T05:23:37;17.60;;;3.53;;
59846;SDS011;45728;48.788;2.302;2023-12-20T05:26:03;15.10;;;2.85;;
59846;SDS011;45728;48.788;2.302;2023-12-20T05:28:29;12.38;;;2.90;;
59846;SDS011;45728;48.788;2.302;2023-12-20T05:30:55;12.82;;;2.72;;
59846;SDS011;45728;48.788;2.302;2023-12-20T05:33:21;11.93;;;2.78;;
59846;SDS011;45728;48.788;2.302;2023-12-20T05:35:47;12.55;;;3.20;;
59846;SDS011;45728;48.788;2.302;2023-12-20T05:38:13;12.63;;;2.75;;
59846;SDS011;45728;48.788;2.302;2023-12-20T05:40:39;9.38;;;2.85;;
59846;SDS011;45728;48.788;2.302;2023-12-20T05:43:05;8.05;;;2.42;;
59846;SDS011;45728;48.788;2.302;2023-12-20T05:45:31;13.77;;;3.35;;
59846;SDS011;45728;48.788;2.302;2023-12-20T05:47:57;15.30;;;3.47;;
59846;SDS011;45728;48.788;2.302;2023-12-20T05:50:24;11.80;;;2.90;;
59846;SDS011;45728;48.788;2.302;2023-12-20T05:52:50;11.95;;;2.90;;
59846;SDS011;45728;48.788;2.302;2023-12-20T05:55:16;12.77;;;3.20;;
59846;SDS011;45728;48.788;2.302;2023-12-20T05:57:42;9.00;;;3.00;;
59846;SDS011;45728;48.788;2.302;2023-12-20T06:00:09;14.10;;;3.28;;
59846;SDS011;45728;48.788;2.302;2023-12-20T06:02:35;12.25;;;2.53;;
59846;SDS011;45728;48.788;2.302;2023-12-20T06:05:03;11.60;;;2.83;;
59846;SDS011;45728;48.788;2.302;2023-12-20T06:07:30;4.72;;;1.50;;
59846;SDS011;45728;48.788;2.302;2023-12-20T06:09:56;13.90;;;3.47;;
59846;SDS011;45728;48.788;2.302;2023-12-20T06:12:22;13.10;;;3.08;;
59846;SDS011;45728;48.788;2.302;2023-12-20T06:14:48;8.30;;;1.25;;
59846;SDS011;45728;48.788;2.302;2023-12-20T06:17:14;8.73;;;2.67;;
59846;SDS011;45728;48.788;2.302;2023-12-20T06:19:41;14.02;;;3.15;;
59846;SDS011;45728;48.788;2.302;2023-12-20T06:22:10;11.05;;;2.83;;
59846;SDS011;45728;48.788;2.302;2023-12-20T06:24:36;11.40;;;3.08;;
59846;SDS011;45728;48.788;2.302;2023-12-20T06:27:02;11.57;;;2.95;;
59846;SDS011;45728;48.788;2.302;2023-12-20T06:29:28;6.20;;;1.23;;
59846;SDS011;45728;48.788;2.302;2023-12-20T06:31:54;12.95;;;3.00;;
59846;SDS011;45728;48.788;2.302;2023-12-20T06:34:20;11.00;;;3.10;;
59846;SDS011;45728;48.788;2.302;2023-12-20T06:36:46;11.65;;;2.10;;
59846;SDS011;45728;48.788;2.302;2023-12-20T06:39:12;10.15;;;2.70;;
59846;SDS011;45728;48.788;2.302;2023-12-20T06:41:39;9.27;;;2.65;;
59846;SDS011;45728;48.788;2.302;2023-12-20T06:44:05;9.63;;;3.20;;
59846;SDS011;45728;48.788;2.302;2023-12-20T06:46:31;13.05;;;3.13;;
59846;SDS011;45728;48.788;2.302;2023-12-20T06:48:57;13.48;;;3.40;;
59846;SDS011;45728;48.788;2.302;2023-12-20T06:51:23;15.07;;;3.33;;
59846;SDS011;45728;48.788;2.302;2023-12-20T06:53:51;12.88;;;3.03;;
59846;SDS011;45728;48.788;2.302;2023-12-20T06:56:17;14.07;;;3.10;;
59846;SDS011;45728;48.788;2.302;2023-12-20T06:58:44;19.05;;;4.15;;
59846;SDS011;45728;48.788;2.302;2023-12-20T07:01:11;12.80;;;3.70;;
59846;SDS011;45728;48.788;2.302;2023-12-20T07:03:37;11.88;;;3.67;;
59846;SDS011;45728;48.788;2.302;2023-12-20T07:06:03;14.30;;;3.47;;
59846;SDS011;45728;48.788;2.302;2023-12-20T07:08:29;17.98;;;3.33;;
59846;SDS011;45728;48.788;2.302;2023-12-20T07:10:55;11.73;;;3.88;;
59846;SDS011;45728;48.788;2.302;2023-12-20T07:13:21;13.27;;;3.40;;
59846;SDS011;45728;48.788;2.302;2023-12-20T07:15:48;9.15;;;3.30;;
59846;SDS011;45728;48.788;2.302;2023-12-20T07:18:14;10.13;;;3.35;;
59846;SDS011;45728;48.788;2.302;2023-12-20T07:20:40;15.07;;;1.95;;
59846;SDS011;45728;48.788;2.302;2023-12-20T07:23:06;11.00;;;3.03;;
59846;SDS011;45728;48.788;2.302;2023-12-20T07:25:32;11.93;;;3.30;;
59846;SDS011;45728;48.788;2.302;2023-12-20T07:27:58;12.75;;;4.15;;
59846;SDS011;45728;48.788;2.302;2023-12-20T07:30:24;12.32;;;3.63;;
59846;SDS011;45728;48.788;2.302;2023-12-20T07:32:50;8.45;;;1.83;;
59846;SDS011;45728;48.788;2.302;2023-12-20T07:35:18;8.70;;;1.75;;
59846;SDS011;45728;48.788;2.302;2023-12-20T07:37:44;14.50;;;3.70;;
59846;SDS011;45728;48.788;2.302;2023-12-20T07:40:10;14.38;;;3.83;;
59846;SDS011;45728;48.788;2.302;2023-12-20T07:42:36;11.07;;;3.42;;
59846;SDS011;45728;48.788;2.302;2023-12-20T07:45:03;11.57;;;3.53;;
59846;SDS011;45728;48.788;2.302;2023-12-20T07:47:29;12.90;;;3.55;;
59846;SDS011;45728;48.788;2.302;2023-12-20T07:49:55;11.88;;;1.90;;
59846;SDS011;45728;48.788;2.302;2023-12-20T07:52:21;15.77;;;4.07;;
59846;SDS011;45728;48.788;2.302;2023-12-20T07:54:48;16.70;;;3.67;;
59846;SDS011;45728;48.788;2.302;2023-12-20T07:57:14;17.50;;;4.03;;
59846;SDS011;45728;48.788;2.302;2023-12-20T07:59:40;13.18;;;3.47;;
59846;SDS011;45728;48.788;2.302;2023-12-20T08:02:06;4.70;;;1.60;;
59846;SDS011;45728;48.788;2.302;2023-12-20T08:04:32;14.65;;;4.03;;
59846;SDS011;45728;48.788;2.302;2023-12-20T08:06:58;17.58;;;3.97;;
59846;SDS011;45728;48.788;2.302;2023-12-20T08:09:25;15.52;;;4.22;;
59846;SDS011;45728;48.788;2.302;2023-12-20T08:11:51;11.63;;;1.88;;
59846;SDS011;45728;48.788;2.302;2023-12-20T08:14:17;12.25;;;3.42;;
59846;SDS011;45728;48.788;2.302;2023-12-20T08:16:43;15.25;;;4.60;;
59846;SDS011;45728;48.788;2.302;2023-12-20T08:19:09;14.93;;;3.80;;
59846;SDS011;45728;48.788;2.302;2023-12-20T08:21:35;15.77;;;2.15;;
59846;SDS011;45728;48.788;2.302;2023-12-20T08:24:01;17.77;;;4.22;;
59846;SDS011;45728;48.788;2.302;2023-12-20T08:26:28;12.32;;;3.40;;
59846;SDS011;45728;48.788;2.302;2023-12-20T08:28:54;18.35;;;4.03;;
59846;SDS011;45728;48.788;2.302;2023-12-20T08:31:20;14.68;;;3.92;;
59846;SDS011;45728;48.788;2.302;2023-12-20T08:33:47;14.70;;;4.05;;
59846;SDS011;45728;48.788;2.302;2023-12-20T08:36:14;10.68;;;4.30;;
59846;SDS011;45728;48.788;2.302;2023-12-20T08:38:40;15.48;;;4.07;;
59846;SDS011;45728;48.788;2.302;2023-12-20T08:41:06;16.67;;;4.78;;
59846;SDS011;45728;48.788;2.302;2023-12-20T08:43:33;13.40;;;4.25;;
59846;SDS011;45728;48.788;2.302;2023-12-20T08:46:01;15.75;;;4.68;;
59846;SDS011;45728;48.788;2.302;2023-12-20T08:48:27;14.20;;;2.50;;
59846;SDS011;45728;48.788;2.302;2023-12-20T08:50:54;18.38;;;4.47;;
59846;SDS011;45728;48.788;2.302;2023-12-20T08:53:20;13.20;;;4.47;;
59846;SDS011;45728;48.788;2.302;2023-12-20T08:55:46;12.32;;;4.32;;
59846;SDS011;45728;48.788;2.302;2023-12-20T08:58:13;15.35;;;4.63;;
59846;SDS011;45728;48.788;2.302;2023-12-20T09:00:39;13.63;;;4.63;;
59846;SDS011;45728;48.788;2.302;2023-12-20T09:03:05;16.42;;;4.90;;
59846;SDS011;45728;48.788;2.302;2023-12-20T09:05:31;19.35;;;4.25;;
59846;SDS011;45728;48.788;2.302;2023-12-20T09:07:57;15.90;;;4.57;;
59846;SDS011;45728;48.788;2.302;2023-12-20T09:10:23;13.57;;;4.88;;
59846;SDS011;45728;48.788;2.302;2023-12-20T09:12:50;10.30;;;2.60;;
59846;SDS011;45728;48.788;2.302;2023-12-20T09:15:17;20.98;;;5.28;;
59846;SDS011;45728;48.788;2.302;2023-12-20T09:17:43;16.05;;;4.78;;
59846;SDS011;45728;48.788;2.302;2023-12-20T09:20:09;15.18;;;4.63;;
59846;SDS011;45728;48.788;2.302;2023-12-20T09:22:35;17.08;;;5.35;;
59846;SDS011;45728;48.788;2.302;2023-12-20T09:25:04;18.60;;;4.63;;
59846;SDS011;45728;48.788;2.302;2023-12-20T09:27:30;12.50;;;3.67;;
59846;SDS011;45728;48.788;2.302;2023-12-20T09:29:57;14.38;;;4.15;;
59846;SDS011;45728;48.788;2.302;2023-12-20T09:32:23;13.77;;;4.38;;
59846;SDS011;45728;48.788;2.302;2023-12-20T09:34:49;15.70;;;4.30;;
59846;SDS011;45728;48.788;2.302;2023-12-20T09:37:15;13.23;;;4.50;;
59846;SDS011;45728;48.788;2.302;2023-12-20T09:39:41;15.35;;;3.83;;
59846;SDS011;45728;48.788;2.302;2023-12-20T09:42:07;20.50;;;4.18;;
59846;SDS011;45728;48.788;2.302;2023-12-20T09:44:33;13.40;;;3.88;;
59846;SDS011;45728;48.788;2.302;2023-12-20T09:47:02;17.13;;;4.45;;
59846;SDS011;45728;48.788;2.302;2023-12-20T09:49:29;14.15;;;4.00;;
59846;SDS011;45728;48.788;2.302;2023-12-20T09:51:56;12.73;;;3.95;;
59846;SDS011;45728;48.788;2.302;2023-12-20T09:54:23;12.82;;;3.97;;
59846;SDS011;45728;48.788;2.302;2023-12-20T09:56:49;15.00;;;4.25;;
59846;SDS011;45728;48.788;2.302;2023-12-20T09:59:16;14.13;;;4.47;;
59846;SDS011;45728;48.788;2.302;2023-12-20T10:01:43;14.15;;;4.40;;
59846;SDS011;45728;48.788;2.302;2023-12-20T10:04:10;17.58;;;4.00;;
59846;SDS011;45728;48.788;2.302;2023-12-20T10:06:41;16.27;;;4.07;;
59846;SDS011;45728;48.788;2.302;2023-12-20T10:09:11;13.27;;;3.95;;
59846;SDS011;45728;48.788;2.302;2023-12-20T10:11:38;18.42;;;4.70;;
59846;SDS011;45728;48.788;2.302;2023-12-20T10:14:05;13.68;;;3.60;;
59846;SDS011;45728;48.788;2.302;2023-12-20T10:16:32;12.52;;;3.88;;
59846;SDS011;45728;48.788;2.302;2023-12-20T10:18:59;11.48;;;3.50;;
59846;SDS011;45728;48.788;2.302;2023-12-20T10:21:29;14.60;;;4.07;;
59846;SDS011;45728;48.788;2.302;2023-12-20T10:23:56;13.80;;;3.95;;
59846;SDS011;45728;48.788;2.302;2023-12-20T10:26:24;16.33;;;3.90;;
59846;SDS011;45728;48.788;2.302;2023-12-20T10:28:56;17.73;;;4.35;;
59846;SDS011;45728;48.788;2.302;2023-12-20T10:36:23;14.25;;;3.50;;
59846;SDS011;45728;48.788;2.302;2023-12-20T10:38:53;12.70;;;3.90;;
59846;SDS011;45728;48.788;2.302;2023-12-20T10:41:24;14.88;;;3.83;;
59846;SDS011;45728;48.788;2.302;2023-12-20T10:44:01;15.57;;;3.88;;
59846;SDS011;45728;48.788;2.302;2023-12-20T10:46:29;13.57;;;3.67;;
59846;SDS011;45728;48.788;2.302;2023-12-20T10:48:56;17.23;;;3.78;;
59846;SDS011;45728;48.788;2.302;2023-12-20T10:51:23;16.30;;;3.95;;
59846;SDS011;45728;48.788;2.302;2023-12-20T10:53:52;15.05;;;4.00;;
59846;SDS011;45728;48.788;2.302;2023-12-20T10:56:19;13.25;;;3.60;;
59846;SDS011;45728;48.788;2.302;2023-12-20T10:58:46;11.40;;;3.80;;
59846;SDS011;45728;48.788;2.302;2023-12-20T11:01:15;15.90;;;4.07;;
59846;SDS011;45728;48.788;2.302;2023-12-20T11:03:53;14.10;;;3.60;;
59846;SDS011;45728;48.788;2.302;2023-12-20T11:06:27;15.75;;;3.85;;
59846;SDS011;45728;48.788;2.302;2023-12-20T11:14:47;15.70;;;4.00;;
59846;SDS011;45728;48.788;2.302;2023-12-20T11:17:14;14.25;;;3.45;;
59846;SDS011;45728;48.788;2.302;2023-12-20T11:22:19;13.75;;;4.13;;
59846;SDS011;45728;48.788;2.302;2023-12-20T11:24:48;10.75;;;3.60;;
59846;SDS011;45728;48.788;2.302;2023-12-20T11:27:18;15.65;;;3.67;;
59846;SDS011;45728;48.788;2.302;2023-12-20T11:29:52;12.90;;;3.97;;
59846;SDS011;45728;48.788;2.302;2023-12-20T11:34:51;10.38;;;3.20;;
59846;SDS011;45728;48.788;2.302;2023-12-20T11:37:19;11.98;;;3.35;;
59846;SDS011;45728;48.788;2.302;2023-12-20T11:39:45;11.10;;;3.67;;
59846;SDS011;45728;48.788;2.302;2023-12-20T11:42:25;18.20;;;3.63;;
59846;SDS011;45728;48.788;2.302;2023-12-20T11:44:51;10.90;;;3.03;;
59846;SDS011;45728;48.788;2.302;2023-12-20T11:47:18;14.07;;;3.83;;
59846;SDS011;45728;48.788;2.302;2023-12-20T11:49:48;13.98;;;3.65;;
59846;SDS011;45728;48.788;2.302;2023-12-20T11:52:14;15.20;;;3.95;;
59846;SDS011;45728;48.788;2.302;2023-12-20T11:54:40;12.68;;;3.78;;
59846;SDS011;45728;48.788;2.302;2023-12-20T11:57:06;13.15;;;3.70;;
59846;SDS011;45728;48.788;2.302;2023-12-20T11:59:32;13.48;;;4.22;;
59846;SDS011;45728;48.788;2.302;2023-12-20T12:01:59;15.63;;;3.85;;
59846;SDS011;45728;48.788;2.302;2023-12-20T12:04:26;11.60;;;3.80;;
59846;SDS011;45728;48.788;2.302;2023-12-20T12:06:53;12.82;;;3.65;;
59846;SDS011;45728;48.788;2.302;2023-12-20T12:09:19;12.85;;;3.50;;
59846;SDS011;45728;48.788;2.302;2023-12-20T12:11:46;16.67;;;7.00;;
59846;SDS011;45728;48.788;2.302;2023-12-20T12:14:12;13.65;;;4.20;;
59846;SDS011;45728;48.788;2.302;2023-12-20T12:16:38;21.73;;;4.22;;
59846;SDS011;45728;48.788;2.302;2023-12-20T12:19:04;15.85;;;4.25;;
59846;SDS011;45728;48.788;2.302;2023-12-20T12:21:30;15.10;;;4.15;;
59846;SDS011;45728;48.788;2.302;2023-12-20T12:24:09;18.00;;;4.22;;
59846;SDS011;45728;48.788;2.302;2023-12-20T12:26:35;18.30;;;3.93;;
59846;SDS011;45728;48.788;2.302;2023-12-20T12:29:01;14.95;;;3.70;;
59846;SDS011;45728;48.788;2.302;2023-12-20T12:31:27;16.15;;;3.88;;
59846;SDS011;45728;48.788;2.302;2023-12-20T12:33:54;15.45;;;3.80;;
59846;SDS011;45728;48.788;2.302;2023-12-20T12:36:20;14.30;;;3.78;;
59846;SDS011;45728;48.788;2.302;2023-12-20T12:38:46;17.67;;;3.95;;
59846;SDS011;45728;48.788;2.302;2023-12-20T12:41:13;19.13;;;4.25;;
59846;SDS011;45728;48.788;2.302;2023-12-20T12:43:40;17.25;;;4.25;;
59846;SDS011;45728;48.788;2.302;2023-12-20T12:46:07;17.00;;;3.63;;
59846;SDS011;45728;48.788;2.302;2023-12-20T12:48:33;16.48;;;4.90;;
59846;SDS011;45728;48.788;2.302;2023-12-20T12:50:59;17.13;;;4.50;;
59846;SDS011;45728;48.788;2.302;2023-12-20T12:53:25;17.23;;;3.70;;
59846;SDS011;45728;48.788;2.302;2023-12-20T12:55:54;18.45;;;4.15;;
59846;SDS011;45728;48.788;2.302;2023-12-20T12:58:21;12.02;;;3.70;;
59846;SDS011;45728;48.788;2.302;2023-12-20T13:00:47;12.63;;;3.90;;
59846;SDS011;45728;48.788;2.302;2023-12-20T13:03:14;14.63;;;3.90;;
59846;SDS011;45728;48.788;2.302;2023-12-20T13:05:40;17.30;;;4.25;;
59846;SDS011;45728;48.788;2.302;2023-12-20T13:08:07;13.00;;;4.00;;
59846;SDS011;45728;48.788;2.302;2023-12-20T13:10:35;13.98;;;4.00;;
59846;SDS011;45728;48.788;2.302;2023-12-20T13:13:01;16.08;;;4.28;;
59846;SDS011;45728;48.788;2.302;2023-12-20T13:15:27;11.15;;;3.80;;
59846;SDS011;45728;48.788;2.302;2023-12-20T13:17:53;13.18;;;4.07;;
59846;SDS011;45728;48.788;2.302;2023-12-20T13:20:19;16.30;;;4.38;;
59846;SDS011;45728;48.788;2.302;2023-12-20T13:22:45;14.85;;;4.32;;
59846;SDS011;45728;48.788;2.302;2023-12-20T13:25:14;14.57;;;3.67;;
59846;SDS011;45728;48.788;2.302;2023-12-20T13:27:45;16.17;;;3.88;;
59846;SDS011;45728;48.788;2.302;2023-12-20T13:30:17;16.13;;;4.00;;
59846;SDS011;45728;48.788;2.302;2023-12-20T13:32:44;17.65;;;4.32;;
59846;SDS011;45728;48.788;2.302;2023-12-20T13:35:10;17.65;;;4.05;;
59846;SDS011;45728;48.788;2.302;2023-12-20T13:37:36;12.85;;;3.70;;
59846;SDS011;45728;48.788;2.302;2023-12-20T13:40:02;11.38;;;3.15;;
59846;SDS011;45728;48.788;2.302;2023-12-20T13:42:30;16.13;;;3.97;;
59846;SDS011;45728;48.788;2.302;2023-12-20T13:44:56;14.90;;;3.67;;
59846;SDS011;45728;48.788;2.302;2023-12-20T13:47:22;13.95;;;3.40;;
59846;SDS011;45728;48.788;2.302;2023-12-20T13:49:48;11.70;;;3.47;;
59846;SDS011;45728;48.788;2.302;2023-12-20T13:52:14;17.50;;;4.32;;
59846;SDS011;45728;48.788;2.302;2023-12-20T13:54:40;12.68;;;3.15;;
59846;SDS011;45728;48.788;2.302;2023-12-20T13:57:06;11.57;;;3.10;;
59846;SDS011;45728;48.788;2.302;2023-12-20T13:59:32;9.80;;;2.75;;
59846;SDS011;45728;48.788;2.302;2023-12-20T14:01:58;9.77;;;2.88;;
59846;SDS011;45728;48.788;2.302;2023-12-20T14:04:25;13.45;;;3.25;;
59846;SDS011;45728;48.788;2.302;2023-12-20T14:06:51;11.07;;;2.88;;
59846;SDS011;45728;48.788;2.302;2023-12-20T14:09:17;12.00;;;3.03;;
59846;SDS011;45728;48.788;2.302;2023-12-20T14:11:43;13.13;;;2.67;;
59846;SDS011;45728;48.788;2.302;2023-12-20T14:14:10;10.38;;;2.60;;
59846;SDS011;45728;48.788;2.302;2023-12-20T14:16:56;9.07;;;2.78;;
59846;SDS011;45728;48.788;2.302;2023-12-20T14:19:32;8.27;;;2.53;;
59846;SDS011;45728;48.788;2.302;2023-12-20T14:22:00;8.93;;;2.70;;
59846;SDS011;45728;48.788;2.302;2023-12-20T14:24:27;10.02;;;2.55;;
59846;SDS011;45728;48.788;2.302;2023-12-20T14:26:57;9.48;;;2.42;;
59846;SDS011;45728;48.788;2.302;2023-12-20T14:29:24;10.25;;;2.28;;
59846;SDS011;45728;48.788;2.302;2023-12-20T14:31:50;11.93;;;2.83;;
59846;SDS011;45728;48.788;2.302;2023-12-20T14:34:16;10.63;;;2.67;;
59846;SDS011;45728;48.788;2.302;2023-12-20T14:36:42;7.90;;;2.50;;
59846;SDS011;45728;48.788;2.302;2023-12-20T14:39:08;10.07;;;2.88;;
59846;SDS011;45728;48.788;2.302;2023-12-20T14:41:36;11.40;;;3.95;;
59846;SDS011;45728;48.788;2.302;2023-12-20T14:44:03;11.15;;;3.10;;
59846;SDS011;45728;48.788;2.302;2023-12-20T14:46:30;11.00;;;3.20;;
59846;SDS011;45728;48.788;2.302;2023-12-20T14:48:56;12.07;;;2.72;;
59846;SDS011;45728;48.788;2.302;2023-12-20T14:51:22;11.82;;;3.03;;